sensor_id;sensor_type;location;lat;lon;timestamp;temperature;humidity
52725;DHT22;38621;52.830;6.914;2023-10-09T00:01:17;13.40;99.90
52725;DHT22;38621;52.830;6.914;2023-10-09T00:03:44;13.40;99.90
52725;DHT22;38621;52.830;6.914;2023-10-09T00:06:11;13.30;99.90
52725;DHT22;38621;52.830;6.914;2023-10-09T00:08:39;13.30;99.90
52725;DHT22;38621;52.830;6.914;2023-10-09T00:11:10;13.40;99.90
52725;DHT22;38621;52.830;6.914;2023-10-09T00:13:41;13.30;99.90
52725;DHT22;38621;52.830;6.914;2023-10-09T00:16:19;13.30;99.90
52725;DHT22;38621;52.830;6.914;2023-10-09T00:19:03;13.30;99.90
52725;DHT22;38621;52.830;6.914;2023-10-09T00:21:56;13.30;99.90
52725;DHT22;38621;52.830;6.914;2023-10-09T00:24:24;13.30;99.90
52725;DHT22;38621;52.830;6.914;2023-10-09T00:26:54;13.30;99.90
52725;DHT22;38621;52.830;6.914;2023-10-09T00:29:27;13.30;99.90
52725;DHT22;38621;52.830;6.914;2023-10-09T00:31:54;13.30;99.90
52725;DHT22;38621;52.830;6.914;2023-10-09T00:34:31;13.30;99.90
52725;DHT22;38621;52.830;6.914;2023-10-09T00:37:06;13.30;99.90
52725;DHT22;38621;52.830;6.914;2023-10-09T00:39:36;13.30;99.90
52725;DHT22;38621;52.830;6.914;2023-10-09T00:42:02;13.40;99.90
52725;DHT22;38621;52.830;6.914;2023-10-09T00:44:29;13.30;99.90
52725;DHT22;38621;52.830;6.914;2023-10-09T00:47:10;13.30;99.90
52725;DHT22;38621;52.830;6.914;2023-10-09T00:50:03;13.30;99.90
52725;DHT22;38621;52.830;6.914;2023-10-09T00:52:37;13.30;99.90
52725;DHT22;38621;52.830;6.914;2023-10-09T00:55:27;13.30;99.90
52725;DHT22;38621;52.830;6.914;2023-10-09T00:58:01;13.20;99.90
52725;DHT22;38621;52.830;6.914;2023-10-09T01:00:31;13.20;99.90
52725;DHT22;38621;52.830;6.914;2023-10-09T01:02:59;13.20;99.90
52725;DHT22;38621;52.830;6.914;2023-10-09T01:05:36;13.20;99.90
52725;DHT22;38621;52.830;6.914;2023-10-09T01:08:03;13.20;99.90
52725;DHT22;38621;52.830;6.914;2023-10-09T01:10:47;13.20;99.90
52725;DHT22;38621;52.830;6.914;2023-10-09T01:13:25;13.20;99.90
52725;DHT22;38621;52.830;6.914;2023-10-09T01:16:06;13.20;99.90
52725;DHT22;38621;52.830;6.914;2023-10-09T01:18:32;13.20;99.90
52725;DHT22;38621;52.830;6.914;2023-10-09T01:21:02;13.20;99.90
52725;DHT22;38621;52.830;6.914;2023-10-09T01:23:28;13.20;99.90
52725;DHT22;38621;52.830;6.914;2023-10-09T01:25:55;13.10;99.90
52725;DHT22;38621;52.830;6.914;2023-10-09T01:28:21;13.10;99.90
52725;DHT22;38621;52.830;6.914;2023-10-09T01:30:46;13.10;99.90
52725;DHT22;38621;52.830;6.914;2023-10-09T01:33:13;13.10;99.90
52725;DHT22;38621;52.830;6.914;2023-10-09T01:35:52;13.10;99.90
52725;DHT22;38621;52.830;6.914;2023-10-09T01:38:23;13.10;99.90
52725;DHT22;38621;52.830;6.914;2023-10-09T01:41:12;13.10;99.90
52725;DHT22;38621;52.830;6.914;2023-10-09T01:43:45;13.10;99.90
52725;DHT22;38621;52.830;6.914;2023-10-09T01:46:14;13.00;99.90
52725;DHT22;38621;52.830;6.914;2023-10-09T01:48:45;13.00;99.90
52725;DHT22;38621;52.830;6.914;2023-10-09T01:51:15;13.00;99.90
52725;DHT22;38621;52.830;6.914;2023-10-09T01:53:46;13.00;99.90
52725;DHT22;38621;52.830;6.914;2023-10-09T01:56:22;13.00;99.90
52725;DHT22;38621;52.830;6.914;2023-10-09T01:58:48;13.00;99.90
52725;DHT22;38621;52.830;6.914;2023-10-09T02:01:16;13.00;99.90
52725;DHT22;38621;52.830;6.914;2023-10-09T02:03:41;12.90;99.90
52725;DHT22;38621;52.830;6.914;2023-10-09T02:06:09;12.90;99.90
52725;DHT22;38621;52.830;6.914;2023-10-09T02:08:54;12.90;99.90
52725;DHT22;38621;52.830;6.914;2023-10-09T02:11:22;13.00;99.90
52725;DHT22;38621;52.830;6.914;2023-10-09T02:14:04;13.00;99.90
52725;DHT22;38621;52.830;6.914;2023-10-09T02:16:45;13.00;99.90
52725;DHT22;38621;52.830;6.914;2023-10-09T02:19:28;13.00;99.90
52725;DHT22;38621;52.830;6.914;2023-10-09T02:22:01;13.00;99.90
52725;DHT22;38621;52.830;6.914;2023-10-09T02:24:37;13.00;99.90
52725;DHT22;38621;52.830;6.914;2023-10-09T02:27:16;13.00;99.90
52725;DHT22;38621;52.830;6.914;2023-10-09T02:30:00;13.00;99.90
52725;DHT22;38621;52.830;6.914;2023-10-09T02:32:34;13.00;99.90
52725;DHT22;38621;52.830;6.914;2023-10-09T02:35:03;13.00;99.90
52725;DHT22;38621;52.830;6.914;2023-10-09T02:37:36;13.00;99.90
52725;DHT22;38621;52.830;6.914;2023-10-09T02:40:04;13.00;99.90
52725;DHT22;38621;52.830;6.914;2023-10-09T02:42:34;13.00;99.90
52725;DHT22;38621;52.830;6.914;2023-10-09T02:45:00;13.00;99.90
52725;DHT22;38621;52.830;6.914;2023-10-09T02:47:26;13.00;99.90
52725;DHT22;38621;52.830;6.914;2023-10-09T02:50:04;13.00;99.90
52725;DHT22;38621;52.830;6.914;2023-10-09T02:52:44;13.10;99.90
52725;DHT22;38621;52.830;6.914;2023-10-09T02:55:13;13.10;99.90
52725;DHT22;38621;52.830;6.914;2023-10-09T02:57:49;13.10;99.90
52725;DHT22;38621;52.830;6.914;2023-10-09T03:00:17;13.10;99.90
52725;DHT22;38621;52.830;6.914;2023-10-09T03:02:55;13.10;99.90
52725;DHT22;38621;52.830;6.914;2023-10-09T03:05:24;13.10;99.90
52725;DHT22;38621;52.830;6.914;2023-10-09T03:07:53;13.10;99.90
52725;DHT22;38621;52.830;6.914;2023-10-09T03:10:19;13.10;99.90
52725;DHT22;38621;52.830;6.914;2023-10-09T03:12:46;13.10;99.90
52725;DHT22;38621;52.830;6.914;2023-10-09T03:15:12;13.10;99.90
52725;DHT22;38621;52.830;6.914;2023-10-09T03:17:38;13.10;99.90
52725;DHT22;38621;52.830;6.914;2023-10-09T03:20:05;13.10;99.90
52725;DHT22;38621;52.830;6.914;2023-10-09T03:22:41;13.10;99.90
52725;DHT22;38621;52.830;6.914;2023-10-09T03:25:08;13.20;99.90
52725;DHT22;38621;52.830;6.914;2023-10-09T03:27:40;13.20;99.90
52725;DHT22;38621;52.830;6.914;2023-10-09T03:30:16;13.20;99.90
52725;DHT22;38621;52.830;6.914;2023-10-09T03:32:47;13.20;99.90
52725;DHT22;38621;52.830;6.914;2023-10-09T03:35:17;13.30;99.90
52725;DHT22;38621;52.830;6.914;2023-10-09T03:37:50;13.30;99.90
52725;DHT22;38621;52.830;6.914;2023-10-09T03:40:17;13.30;99.90
52725;DHT22;38621;52.830;6.914;2023-10-09T03:42:44;13.40;99.90
52725;DHT22;38621;52.830;6.914;2023-10-09T03:45:09;13.40;99.90
52725;DHT22;38621;52.830;6.914;2023-10-09T03:47:53;13.40;99.90
52725;DHT22;38621;52.830;6.914;2023-10-09T03:50:40;13.50;99.90
52725;DHT22;38621;52.830;6.914;2023-10-09T03:53:08;13.50;99.90
52725;DHT22;38621;52.830;6.914;2023-10-09T03:55:37;13.50;99.90
52725;DHT22;38621;52.830;6.914;2023-10-09T03:58:09;13.60;99.90
52725;DHT22;38621;52.830;6.914;2023-10-09T04:00:39;13.60;99.90
52725;DHT22;38621;52.830;6.914;2023-10-09T04:03:11;13.60;99.90
52725;DHT22;38621;52.830;6.914;2023-10-09T04:05:37;13.70;99.90
52725;DHT22;38621;52.830;6.914;2023-10-09T04:08:07;13.70;99.90
52725;DHT22;38621;52.830;6.914;2023-10-09T04:10:52;13.70;99.90
52725;DHT22;38621;52.830;6.914;2023-10-09T04:13:19;13.70;99.90
52725;DHT22;38621;52.830;6.914;2023-10-09T04:15:51;13.80;99.90
52725;DHT22;38621;52.830;6.914;2023-10-09T04:18:19;13.80;99.90
52725;DHT22;38621;52.830;6.914;2023-10-09T04:20:46;13.90;99.90
52725;DHT22;38621;52.830;6.914;2023-10-09T04:23:30;13.90;99.90
52725;DHT22;38621;52.830;6.914;2023-10-09T04:26:21;13.90;99.90
52725;DHT22;38621;52.830;6.914;2023-10-09T04:28:50;14.00;99.90
52725;DHT22;38621;52.830;6.914;2023-10-09T04:31:21;14.00;99.90
52725;DHT22;38621;52.830;6.914;2023-10-09T04:34:00;14.00;99.90
52725;DHT22;38621;52.830;6.914;2023-10-09T04:36:47;14.00;99.90
52725;DHT22;38621;52.830;6.914;2023-10-09T04:39:15;14.00;99.90
52725;DHT22;38621;52.830;6.914;2023-10-09T04:41:42;14.10;99.90
52725;DHT22;38621;52.830;6.914;2023-10-09T04:44:09;14.10;99.90
52725;DHT22;38621;52.830;6.914;2023-10-09T04:46:51;14.10;99.90
52725;DHT22;38621;52.830;6.914;2023-10-09T04:49:36;14.10;99.90
52725;DHT22;38621;52.830;6.914;2023-10-09T04:52:17;14.10;99.90
52725;DHT22;38621;52.830;6.914;2023-10-09T04:54:45;14.10;99.90
52725;DHT22;38621;52.830;6.914;2023-10-09T04:57:29;14.20;99.90
52725;DHT22;38621;52.830;6.914;2023-10-09T05:00:06;14.20;99.90
52725;DHT22;38621;52.830;6.914;2023-10-09T05:02:48;14.30;99.90
52725;DHT22;38621;52.830;6.914;2023-10-09T05:05:21;14.30;99.90
52725;DHT22;38621;52.830;6.914;2023-10-09T05:08:05;14.30;99.90
52725;DHT22;38621;52.830;6.914;2023-10-09T05:10:47;14.30;99.90
52725;DHT22;38621;52.830;6.914;2023-10-09T05:13:26;14.30;99.90
52725;DHT22;38621;52.830;6.914;2023-10-09T05:18:41;14.40;99.90
52725;DHT22;38621;52.830;6.914;2023-10-09T05:21:07;14.40;99.90
52725;DHT22;38621;52.830;6.914;2023-10-09T05:23:42;14.40;99.90
52725;DHT22;38621;52.830;6.914;2023-10-09T05:26:17;14.50;99.90
52725;DHT22;38621;52.830;6.914;2023-10-09T05:29:22;14.50;99.90
52725;DHT22;38621;52.830;6.914;2023-10-09T05:31:54;14.60;99.90
52725;DHT22;38621;52.830;6.914;2023-10-09T05:34:29;14.50;99.90
52725;DHT22;38621;52.830;6.914;2023-10-09T05:37:13;14.60;99.90
52725;DHT22;38621;52.830;6.914;2023-10-09T05:39:54;14.60;99.90
52725;DHT22;38621;52.830;6.914;2023-10-09T05:42:27;14.60;99.90
52725;DHT22;38621;52.830;6.914;2023-10-09T05:45:11;14.70;99.90
52725;DHT22;38621;52.830;6.914;2023-10-09T05:47:50;14.70;99.90
52725;DHT22;38621;52.830;6.914;2023-10-09T05:50:26;14.70;99.90
52725;DHT22;38621;52.830;6.914;2023-10-09T05:52:54;14.70;99.90
52725;DHT22;38621;52.830;6.914;2023-10-09T05:55:20;14.70;99.90
52725;DHT22;38621;52.830;6.914;2023-10-09T05:57:56;14.80;99.90
52725;DHT22;38621;52.830;6.914;2023-10-09T06:00:40;14.80;99.90
52725;DHT22;38621;52.830;6.914;2023-10-09T06:03:24;14.80;99.90
52725;DHT22;38621;52.830;6.914;2023-10-09T06:06:13;14.90;99.90
52725;DHT22;38621;52.830;6.914;2023-10-09T06:08:58;14.90;99.90
52725;DHT22;38621;52.830;6.914;2023-10-09T06:11:49;15.00;99.90
52725;DHT22;38621;52.830;6.914;2023-10-09T06:14:16;15.00;99.90
52725;DHT22;38621;52.830;6.914;2023-10-09T06:16:51;15.00;99.90
52725;DHT22;38621;52.830;6.914;2023-10-09T06:19:41;15.00;99.90
52725;DHT22;38621;52.830;6.914;2023-10-09T06:22:10;15.00;99.90
52725;DHT22;38621;52.830;6.914;2023-10-09T06:24:54;15.10;99.90
52725;DHT22;38621;52.830;6.914;2023-10-09T06:27:21;15.10;99.90
52725;DHT22;38621;52.830;6.914;2023-10-09T06:30:09;15.10;99.90
52725;DHT22;38621;52.830;6.914;2023-10-09T06:32:38;15.10;99.90
52725;DHT22;38621;52.830;6.914;2023-10-09T06:35:11;15.10;99.90
52725;DHT22;38621;52.830;6.914;2023-10-09T06:37:57;15.10;99.90
52725;DHT22;38621;52.830;6.914;2023-10-09T06:40:38;15.20;99.90
52725;DHT22;38621;52.830;6.914;2023-10-09T06:43:04;15.20;99.90
52725;DHT22;38621;52.830;6.914;2023-10-09T06:45:53;15.20;99.90
52725;DHT22;38621;52.830;6.914;2023-10-09T06:48:38;15.30;99.90
52725;DHT22;38621;52.830;6.914;2023-10-09T06:53:57;15.30;99.90
52725;DHT22;38621;52.830;6.914;2023-10-09T06:56:30;15.40;99.90
52725;DHT22;38621;52.830;6.914;2023-10-09T07:01:26;15.40;99.90
52725;DHT22;38621;52.830;6.914;2023-10-09T07:04:08;15.50;99.90
52725;DHT22;38621;52.830;6.914;2023-10-09T07:07:07;15.50;99.90
52725;DHT22;38621;52.830;6.914;2023-10-09T07:09:38;15.50;99.90
52725;DHT22;38621;52.830;6.914;2023-10-09T07:12:22;15.60;99.90
52725;DHT22;38621;52.830;6.914;2023-10-09T07:14:52;15.60;99.90
52725;DHT22;38621;52.830;6.914;2023-10-09T07:17:21;15.60;99.90
52725;DHT22;38621;52.830;6.914;2023-10-09T07:19:59;15.70;99.90
52725;DHT22;38621;52.830;6.914;2023-10-09T07:22:45;15.70;99.90
52725;DHT22;38621;52.830;6.914;2023-10-09T07:25:22;15.70;99.90
52725;DHT22;38621;52.830;6.914;2023-10-09T07:28:13;15.80;99.90
52725;DHT22;38621;52.830;6.914;2023-10-09T07:30:56;15.80;99.90
52725;DHT22;38621;52.830;6.914;2023-10-09T07:33:23;15.80;99.90
52725;DHT22;38621;52.830;6.914;2023-10-09T07:36:01;15.90;99.90
52725;DHT22;38621;52.830;6.914;2023-10-09T07:38:31;15.90;99.90
52725;DHT22;38621;52.830;6.914;2023-10-09T07:41:03;15.90;99.90
52725;DHT22;38621;52.830;6.914;2023-10-09T07:43:36;15.90;99.90
52725;DHT22;38621;52.830;6.914;2023-10-09T07:46:17;15.90;99.90
52725;DHT22;38621;52.830;6.914;2023-10-09T07:49:05;15.90;99.90
52725;DHT22;38621;52.830;6.914;2023-10-09T07:51:36;15.90;99.90
52725;DHT22;38621;52.830;6.914;2023-10-09T07:54:02;15.90;99.90
52725;DHT22;38621;52.830;6.914;2023-10-09T07:56:34;15.90;99.90
52725;DHT22;38621;52.830;6.914;2023-10-09T07:59:20;15.90;99.90
52725;DHT22;38621;52.830;6.914;2023-10-09T08:01:50;15.90;99.90
52725;DHT22;38621;52.830;6.914;2023-10-09T08:04:28;16.00;99.90
52725;DHT22;38621;52.830;6.914;2023-10-09T08:07:10;16.00;99.90
52725;DHT22;38621;52.830;6.914;2023-10-09T08:09:45;16.00;99.90
52725;DHT22;38621;52.830;6.914;2023-10-09T08:12:46;16.00;99.90
52725;DHT22;38621;52.830;6.914;2023-10-09T08:15:16;16.00;99.90
52725;DHT22;38621;52.830;6.914;2023-10-09T08:17:49;16.10;99.90
52725;DHT22;38621;52.830;6.914;2023-10-09T08:20:26;16.10;99.90
52725;DHT22;38621;52.830;6.914;2023-10-09T08:22:53;16.10;99.90
52725;DHT22;38621;52.830;6.914;2023-10-09T08:25:22;16.10;99.90
52725;DHT22;38621;52.830;6.914;2023-10-09T08:28:01;16.10;99.90
52725;DHT22;38621;52.830;6.914;2023-10-09T08:30:39;16.20;99.90
52725;DHT22;38621;52.830;6.914;2023-10-09T08:33:34;16.20;99.90
52725;DHT22;38621;52.830;6.914;2023-10-09T08:36:00;16.20;99.90
52725;DHT22;38621;52.830;6.914;2023-10-09T08:38:33;16.20;99.90
52725;DHT22;38621;52.830;6.914;2023-10-09T08:41:13;16.10;99.90
52725;DHT22;38621;52.830;6.914;2023-10-09T08:43:51;16.20;99.90
52725;DHT22;38621;52.830;6.914;2023-10-09T08:46:25;16.20;99.90
52725;DHT22;38621;52.830;6.914;2023-10-09T08:48:56;16.20;99.90
52725;DHT22;38621;52.830;6.914;2023-10-09T08:51:26;16.20;99.90
52725;DHT22;38621;52.830;6.914;2023-10-09T08:53:52;16.30;99.90
52725;DHT22;38621;52.830;6.914;2023-10-09T08:56:20;16.30;99.90
52725;DHT22;38621;52.830;6.914;2023-10-09T08:58:53;16.20;99.90
52725;DHT22;38621;52.830;6.914;2023-10-09T09:01:20;16.20;99.90
52725;DHT22;38621;52.830;6.914;2023-10-09T09:03:48;16.20;99.90
52725;DHT22;38621;52.830;6.914;2023-10-09T09:06:17;16.20;99.90
52725;DHT22;38621;52.830;6.914;2023-10-09T09:08:45;16.10;99.90
52725;DHT22;38621;52.830;6.914;2023-10-09T09:11:13;16.10;99.90
52725;DHT22;38621;52.830;6.914;2023-10-09T09:13:43;16.10;99.90
52725;DHT22;38621;52.830;6.914;2023-10-09T09:16:17;16.00;99.90
52725;DHT22;38621;52.830;6.914;2023-10-09T09:19:06;15.90;99.90
52725;DHT22;38621;52.830;6.914;2023-10-09T09:21:36;15.90;99.90
52725;DHT22;38621;52.830;6.914;2023-10-09T09:24:11;15.90;99.90
52725;DHT22;38621;52.830;6.914;2023-10-09T09:26:50;15.80;99.90
52725;DHT22;38621;52.830;6.914;2023-10-09T09:32:04;15.80;99.90
52725;DHT22;38621;52.830;6.914;2023-10-09T09:34:52;15.80;99.90
52725;DHT22;38621;52.830;6.914;2023-10-09T09:37:27;15.80;99.90
52725;DHT22;38621;52.830;6.914;2023-10-09T09:40:02;15.90;99.90
52725;DHT22;38621;52.830;6.914;2023-10-09T09:42:44;15.90;99.90
52725;DHT22;38621;52.830;6.914;2023-10-09T09:45:14;15.90;99.90
52725;DHT22;38621;52.830;6.914;2023-10-09T09:47:44;16.00;99.90
52725;DHT22;38621;52.830;6.914;2023-10-09T09:50:17;16.00;99.90
52725;DHT22;38621;52.830;6.914;2023-10-09T09:52:50;16.00;99.90
52725;DHT22;38621;52.830;6.914;2023-10-09T09:55:25;16.10;99.90
52725;DHT22;38621;52.830;6.914;2023-10-09T09:57:57;16.10;99.90
52725;DHT22;38621;52.830;6.914;2023-10-09T10:00:26;16.10;99.90
52725;DHT22;38621;52.830;6.914;2023-10-09T10:03:31;16.10;99.90
52725;DHT22;38621;52.830;6.914;2023-10-09T10:06:00;16.10;99.90
52725;DHT22;38621;52.830;6.914;2023-10-09T10:08:31;16.20;99.90
52725;DHT22;38621;52.830;6.914;2023-10-09T10:10:59;16.30;99.90
52725;DHT22;38621;52.830;6.914;2023-10-09T10:16:10;16.30;99.90
52725;DHT22;38621;52.830;6.914;2023-10-09T10:18:59;16.30;99.90
52725;DHT22;38621;52.830;6.914;2023-10-09T10:21:26;16.40;99.90
52725;DHT22;38621;52.830;6.914;2023-10-09T10:23:59;16.40;99.90
52725;DHT22;38621;52.830;6.914;2023-10-09T10:26:37;16.40;99.90
52725;DHT22;38621;52.830;6.914;2023-10-09T10:29:19;16.50;99.90
52725;DHT22;38621;52.830;6.914;2023-10-09T10:31:59;16.50;99.90
52725;DHT22;38621;52.830;6.914;2023-10-09T10:40:05;16.60;99.90
52725;DHT22;38621;52.830;6.914;2023-10-09T10:42:48;16.70;99.90
52725;DHT22;38621;52.830;6.914;2023-10-09T10:45:35;16.80;99.90
52725;DHT22;38621;52.830;6.914;2023-10-09T10:48:02;16.70;99.90
52725;DHT22;38621;52.830;6.914;2023-10-09T10:50:33;16.70;99.90
52725;DHT22;38621;52.830;6.914;2023-10-09T10:53:12;16.70;99.90
52725;DHT22;38621;52.830;6.914;2023-10-09T10:56:01;16.80;99.90
52725;DHT22;38621;52.830;6.914;2023-10-09T10:58:54;16.80;99.90
52725;DHT22;38621;52.830;6.914;2023-10-09T11:01:37;16.80;99.90
52725;DHT22;38621;52.830;6.914;2023-10-09T11:04:23;16.80;99.90
52725;DHT22;38621;52.830;6.914;2023-10-09T11:06:55;16.80;99.90
52725;DHT22;38621;52.830;6.914;2023-10-09T11:09:53;16.80;99.90
52725;DHT22;38621;52.830;6.914;2023-10-09T11:12:28;16.80;99.90
52725;DHT22;38621;52.830;6.914;2023-10-09T11:15:15;16.80;99.90
52725;DHT22;38621;52.830;6.914;2023-10-09T11:17:58;16.80;99.90
52725;DHT22;38621;52.830;6.914;2023-10-09T11:20:25;16.80;99.90
52725;DHT22;38621;52.830;6.914;2023-10-09T11:22:52;16.80;99.90
52725;DHT22;38621;52.830;6.914;2023-10-09T11:25:37;16.80;99.90
52725;DHT22;38621;52.830;6.914;2023-10-09T11:28:23;16.80;99.90
52725;DHT22;38621;52.830;6.914;2023-10-09T11:31:08;16.80;99.90
52725;DHT22;38621;52.830;6.914;2023-10-09T11:33:49;16.80;99.90
52725;DHT22;38621;52.830;6.914;2023-10-09T11:36:17;16.80;99.90
52725;DHT22;38621;52.830;6.914;2023-10-09T11:38:43;16.80;99.90
52725;DHT22;38621;52.830;6.914;2023-10-09T11:41:19;16.80;99.90
52725;DHT22;38621;52.830;6.914;2023-10-09T11:43:52;16.80;99.90
52725;DHT22;38621;52.830;6.914;2023-10-09T11:46:22;16.80;99.90
52725;DHT22;38621;52.830;6.914;2023-10-09T11:49:07;16.90;99.90
52725;DHT22;38621;52.830;6.914;2023-10-09T11:52:07;16.90;99.90
52725;DHT22;38621;52.830;6.914;2023-10-09T11:54:38;16.90;99.90
52725;DHT22;38621;52.830;6.914;2023-10-09T11:57:04;16.90;99.90
52725;DHT22;38621;52.830;6.914;2023-10-09T11:59:31;16.90;99.90
52725;DHT22;38621;52.830;6.914;2023-10-09T12:02:10;16.90;99.90
52725;DHT22;38621;52.830;6.914;2023-10-09T12:04:41;16.90;99.90
52725;DHT22;38621;52.830;6.914;2023-10-09T12:07:09;17.00;99.90
52725;DHT22;38621;52.830;6.914;2023-10-09T12:09:38;17.10;99.90
52725;DHT22;38621;52.830;6.914;2023-10-09T12:12:06;17.10;99.90
52725;DHT22;38621;52.830;6.914;2023-10-09T12:14:35;17.20;99.90
52725;DHT22;38621;52.830;6.914;2023-10-09T12:17:07;17.20;99.90
52725;DHT22;38621;52.830;6.914;2023-10-09T12:19:34;17.40;99.90
52725;DHT22;38621;52.830;6.914;2023-10-09T12:22:01;17.50;99.90
52725;DHT22;38621;52.830;6.914;2023-10-09T12:24:32;17.70;99.90
52725;DHT22;38621;52.830;6.914;2023-10-09T12:26:59;17.60;99.90
52725;DHT22;38621;52.830;6.914;2023-10-09T12:29:26;17.60;99.90
52725;DHT22;38621;52.830;6.914;2023-10-09T12:31:58;17.50;99.90
52725;DHT22;38621;52.830;6.914;2023-10-09T12:34:25;17.50;99.90
52725;DHT22;38621;52.830;6.914;2023-10-09T12:36:53;17.50;99.90
52725;DHT22;38621;52.830;6.914;2023-10-09T12:39:22;17.40;99.90
52725;DHT22;38621;52.830;6.914;2023-10-09T12:41:48;17.40;99.90
52725;DHT22;38621;52.830;6.914;2023-10-09T12:44:14;17.40;99.90
52725;DHT22;38621;52.830;6.914;2023-10-09T12:46:41;17.40;99.90
52725;DHT22;38621;52.830;6.914;2023-10-09T12:49:08;17.50;99.90
52725;DHT22;38621;52.830;6.914;2023-10-09T12:51:33;17.60;99.90
52725;DHT22;38621;52.830;6.914;2023-10-09T12:53:59;17.80;99.90
52725;DHT22;38621;52.830;6.914;2023-10-09T12:56:27;18.00;99.90
52725;DHT22;38621;52.830;6.914;2023-10-09T12:59:01;18.10;99.90
52725;DHT22;38621;52.830;6.914;2023-10-09T13:01:30;18.20;99.90
52725;DHT22;38621;52.830;6.914;2023-10-09T13:04:12;18.20;99.90
52725;DHT22;38621;52.830;6.914;2023-10-09T13:06:41;18.20;99.90
52725;DHT22;38621;52.830;6.914;2023-10-09T13:09:10;18.10;99.90
52725;DHT22;38621;52.830;6.914;2023-10-09T13:11:36;18.10;99.90
52725;DHT22;38621;52.830;6.914;2023-10-09T13:14:03;18.00;99.90
52725;DHT22;38621;52.830;6.914;2023-10-09T13:16:37;17.90;99.90
52725;DHT22;38621;52.830;6.914;2023-10-09T13:19:03;17.90;99.90
52725;DHT22;38621;52.830;6.914;2023-10-09T13:21:35;17.90;99.90
52725;DHT22;38621;52.830;6.914;2023-10-09T13:24:06;17.90;99.90
52725;DHT22;38621;52.830;6.914;2023-10-09T13:26:44;18.00;99.90
52725;DHT22;38621;52.830;6.914;2023-10-09T13:29:12;18.00;99.90
52725;DHT22;38621;52.830;6.914;2023-10-09T13:31:39;18.00;99.90
52725;DHT22;38621;52.830;6.914;2023-10-09T13:34:05;18.00;99.90
52725;DHT22;38621;52.830;6.914;2023-10-09T13:36:40;17.90;99.90
52725;DHT22;38621;52.830;6.914;2023-10-09T13:39:15;17.90;99.90
52725;DHT22;38621;52.830;6.914;2023-10-09T13:41:55;18.00;99.90
52725;DHT22;38621;52.830;6.914;2023-10-09T13:44:33;17.90;99.90
52725;DHT22;38621;52.830;6.914;2023-10-09T13:47:01;18.00;99.90
52725;DHT22;38621;52.830;6.914;2023-10-09T13:49:28;17.90;99.90
52725;DHT22;38621;52.830;6.914;2023-10-09T13:51:57;17.90;99.90
52725;DHT22;38621;52.830;6.914;2023-10-09T13:54:23;17.90;99.90
52725;DHT22;38621;52.830;6.914;2023-10-09T13:57:01;17.90;99.90
52725;DHT22;38621;52.830;6.914;2023-10-09T13:59:30;18.00;99.90
52725;DHT22;38621;52.830;6.914;2023-10-09T14:01:56;18.10;99.90
52725;DHT22;38621;52.830;6.914;2023-10-09T14:04:23;18.10;99.90
52725;DHT22;38621;52.830;6.914;2023-10-09T14:06:52;18.10;99.90
52725;DHT22;38621;52.830;6.914;2023-10-09T14:09:26;18.20;99.90
52725;DHT22;38621;52.830;6.914;2023-10-09T14:12:15;18.20;99.90
52725;DHT22;38621;52.830;6.914;2023-10-09T14:14:45;18.20;99.90
52725;DHT22;38621;52.830;6.914;2023-10-09T14:17:20;18.10;99.90
52725;DHT22;38621;52.830;6.914;2023-10-09T14:19:51;18.00;99.90
52725;DHT22;38621;52.830;6.914;2023-10-09T14:22:24;18.00;99.90
52725;DHT22;38621;52.830;6.914;2023-10-09T14:24:50;17.90;99.90
52725;DHT22;38621;52.830;6.914;2023-10-09T14:27:25;17.80;99.90
52725;DHT22;38621;52.830;6.914;2023-10-09T14:29:53;17.80;99.90
52725;DHT22;38621;52.830;6.914;2023-10-09T14:32:23;17.70;99.90
52725;DHT22;38621;52.830;6.914;2023-10-09T14:34:55;17.60;99.90
52725;DHT22;38621;52.830;6.914;2023-10-09T14:37:26;17.60;99.90
52725;DHT22;38621;52.830;6.914;2023-10-09T14:39:52;17.60;99.90
52725;DHT22;38621;52.830;6.914;2023-10-09T14:42:18;17.60;99.90
52725;DHT22;38621;52.830;6.914;2023-10-09T14:44:46;17.60;99.90
52725;DHT22;38621;52.830;6.914;2023-10-09T14:47:12;17.60;99.90
52725;DHT22;38621;52.830;6.914;2023-10-09T14:49:39;17.60;99.90
52725;DHT22;38621;52.830;6.914;2023-10-09T14:52:13;17.60;99.90
52725;DHT22;38621;52.830;6.914;2023-10-09T14:54:45;17.60;99.90
52725;DHT22;38621;52.830;6.914;2023-10-09T14:57:14;17.60;99.90
52725;DHT22;38621;52.830;6.914;2023-10-09T14:59:40;17.60;99.90
52725;DHT22;38621;52.830;6.914;2023-10-09T15:02:06;17.60;99.90
52725;DHT22;38621;52.830;6.914;2023-10-09T15:04:33;17.50;99.90
52725;DHT22;38621;52.830;6.914;2023-10-09T15:07:05;17.50;99.90
52725;DHT22;38621;52.830;6.914;2023-10-09T15:09:37;17.50;99.90
52725;DHT22;38621;52.830;6.914;2023-10-09T15:12:05;17.50;99.90
52725;DHT22;38621;52.830;6.914;2023-10-09T15:14:32;17.50;99.90
52725;DHT22;38621;52.830;6.914;2023-10-09T15:16:59;17.40;99.90
52725;DHT22;38621;52.830;6.914;2023-10-09T15:19:24;17.40;99.90
52725;DHT22;38621;52.830;6.914;2023-10-09T15:21:55;17.30;99.90
52725;DHT22;38621;52.830;6.914;2023-10-09T15:24:21;17.30;99.90
52725;DHT22;38621;52.830;6.914;2023-10-09T15:26:51;17.20;99.90
52725;DHT22;38621;52.830;6.914;2023-10-09T15:29:26;17.20;99.90
52725;DHT22;38621;52.830;6.914;2023-10-09T15:31:56;17.10;99.90
52725;DHT22;38621;52.830;6.914;2023-10-09T15:34:33;17.10;99.90
52725;DHT22;38621;52.830;6.914;2023-10-09T15:37:00;17.00;99.90
52725;DHT22;38621;52.830;6.914;2023-10-09T15:39:26;17.00;99.90
52725;DHT22;38621;52.830;6.914;2023-10-09T15:41:51;17.00;99.90
52725;DHT22;38621;52.830;6.914;2023-10-09T15:44:17;16.90;99.90
52725;DHT22;38621;52.830;6.914;2023-10-09T15:46:43;16.90;99.90
52725;DHT22;38621;52.830;6.914;2023-10-09T15:49:13;16.90;99.90
52725;DHT22;38621;52.830;6.914;2023-10-09T15:51:42;16.90;99.90
52725;DHT22;38621;52.830;6.914;2023-10-09T15:54:09;16.90;99.90
52725;DHT22;38621;52.830;6.914;2023-10-09T15:56:37;16.90;99.90
52725;DHT22;38621;52.830;6.914;2023-10-09T15:59:07;16.90;99.90
52725;DHT22;38621;52.830;6.914;2023-10-09T16:01:33;16.80;99.90
52725;DHT22;38621;52.830;6.914;2023-10-09T16:04:01;16.80;99.90
52725;DHT22;38621;52.830;6.914;2023-10-09T16:06:26;16.80;99.90
52725;DHT22;38621;52.830;6.914;2023-10-09T16:08:56;16.80;99.90
52725;DHT22;38621;52.830;6.914;2023-10-09T16:11:22;16.80;99.90
52725;DHT22;38621;52.830;6.914;2023-10-09T16:13:52;16.80;99.90
52725;DHT22;38621;52.830;6.914;2023-10-09T16:16:27;16.80;99.90
52725;DHT22;38621;52.830;6.914;2023-10-09T16:18:54;16.70;99.90
52725;DHT22;38621;52.830;6.914;2023-10-09T16:21:22;16.70;99.90
52725;DHT22;38621;52.830;6.914;2023-10-09T16:23:48;16.70;99.90
52725;DHT22;38621;52.830;6.914;2023-10-09T16:26:15;16.70;99.90
52725;DHT22;38621;52.830;6.914;2023-10-09T16:28:42;16.70;99.90